Time;durP1;ratioP1;P1;durP2;ratioP2;P2;SDS_P1;SDS_P2;PMS_P1;PMS_P2;Temp;Humidity;BMP_temperature;BMP_pressure;BME280_temperature;BME280_humidity;BME280_pressure;Samples;Min_cycle;Max_cycle;Signal;HPM_P1;HPM_P2
2023/06/26 00:01:05;;;;;;;;;;;;;;;;;;4929316;28;8504;-87
2023/06/26 00:03:31;;;;;;;;;;;;;;;;;;4924937;29;8912;-87
2023/06/26 00:06:00;;;;;;;;;;;;;;;;;;4926782;29;8853;-88
2023/06/26 00:08:26;;;;;;;;;;;;;;;;;;4927068;29;8946;-88
2023/06/26 00:10:53;;;;;;;;;;;;;;;;;;4920016;29;7285;-87
2023/06/26 00:13:19;;;;;;;;;;;;;;;;;;4916151;29;8683;-87
2023/06/26 00:15:45;;;;;;;;;;;;;;;;;;4915839;29;9059;-87
2023/06/26 00:18:11;;;;;;;;;;;;;;;;;;4916028;29;8414;-87
2023/06/26 00:20:36;;;;;;;;;;;;;;;;;;4916114;29;8682;-87
2023/06/26 00:23:07;;;;;;;;;;;;;;;;;;4915794;29;7275;-88
2023/06/26 00:25:35;;;;;;;;;;;;;;;;;;4915940;29;8646;-88
2023/06/26 00:28:01;;;;;;;;;;;;;;;;;;4916033;29;7261;-88
2023/06/26 00:30:27;;;;;;;;;;;;;;;;;;4915840;29;7154;-87
2023/06/26 00:32:53;;;;;;;;;;;;;;;;;;4916149;29;8486;-87
2023/06/26 00:35:18;;;;;;;;;;;;;;;;;;4915601;29;7336;-87
2023/06/26 00:37:44;;;;;;;;;;;;;;;;;;4915974;29;7151;-87
2023/06/26 00:40:10;;;;;;;;;;;;;;;;;;4916040;29;7445;-87
2023/06/26 00:42:36;;;;;;;;;;;;;;;;;;4915546;29;8621;-87
2023/06/26 00:45:01;;;;;;;;;;;;;;;;;;4915788;29;8573;-86
2023/06/26 00:47:27;;;;;;;;;;;;;;;;;;4915514;29;8571;-85
2023/06/26 00:49:54;;;;;;;;;;;;;;;;;;4915619;29;8567;-86
2023/06/26 00:52:20;;;;;;;;;;;;;;;;;;4915828;29;8556;-87
2023/06/26 00:54:46;;;;;;;;;;;;;;;;;;4915578;29;8660;-86
2023/06/26 00:57:12;;;;;;;;;;;;;;;;;;4915379;29;8778;-86
2023/06/26 00:59:38;;;;;;;;;;;;;;;;;;4915765;29;8515;-86
2023/06/26 01:02:04;;;;;;;;;;;;;;;;;;4917660;29;9720;-87
2023/06/26 01:04:32;;;;;;;;;;;;;;;;;;4918850;29;8546;-86
2023/06/26 01:06:59;;;;;;;;;;;;;;;;;;4918581;29;8625;-86
2023/06/26 01:09:26;;;;;;;;;;;;;;;;;;4918742;29;9409;-87
2023/06/26 01:11:52;;;;;;;;;;;;;;;;;;4918002;29;9161;-86
2023/06/26 01:14:18;;;;;;;;;;;;;;;;;;4918806;29;7134;-87
2023/06/26 01:16:49;;;;;;;;;;;;;;;;;;4918503;29;8521;-87
2023/06/26 01:19:28;;;;;;;;;;;;;;;;;;4921835;29;8628;-86
2023/06/26 01:21:59;;;;;;;;;;;;;;;;;;4922150;29;9088;-86
2023/06/26 01:24:29;;;;;;;;;;;;;;;;;;4922149;29;8444;-86
2023/06/26 01:26:56;;;;;;;;;;;;;;;;;;4922010;29;8533;-86
2023/06/26 01:29:24;;;;;;;;;;;;;;;;;;4921771;29;8923;-86
2023/06/26 01:31:50;;;;;;;;;;;;;;;;;;4921951;29;8648;-86
2023/06/26 01:34:17;;;;;;;;;;;;;;;;;;4921772;29;8539;-86
2023/06/26 01:36:46;;;;;;;;;;;;;;;;;;4921966;29;7546;-86
2023/06/26 01:39:16;;;;;;;;;;;;;;;;;;4922043;29;8807;-90
2023/06/26 01:41:42;;;;;;;;;;;;;;;;;;4922034;29;8540;-88
2023/06/26 01:44:16;;;;;;;;;;;;;;;;;;4921718;29;8553;-87
2023/06/26 01:46:45;;;;;;;;;;;;;;;;;;4922045;29;8512;-87
2023/06/26 01:49:29;;;;;;;;;;;;;;;;;;4921810;29;8899;-87
2023/06/26 01:52:15;;;;;;;;;;;;;;;;;;4921591;29;8618;-82
2023/06/26 01:54:53;;;;;;;;;;;;;;;;;;4908027;29;7283;-88
2023/06/26 01:57:20;;;;;;;;;;;;;;;;;;4921486;29;7296;-88
2023/06/26 01:59:47;;;;;;;;;;;;;;;;;;4921401;29;8665;-85
2023/06/26 02:02:14;;;;;;;;;;;;;;;;;;4920983;29;8658;-85
2023/06/26 02:04:40;;;;;;;;;;;;;;;;;;4921293;29;7515;-86
2023/06/26 02:07:06;;;;;;;;;;;;;;;;;;4921405;29;8540;-85
2023/06/26 02:09:31;;;;;;;;;;;;;;;;;;4921227;29;9010;-84
2023/06/26 02:11:57;;;;;;;;;;;;;;;;;;4921534;29;8964;-85
2023/06/26 02:14:23;;;;;;;;;;;;;;;;;;4921169;29;8829;-86
2023/06/26 02:16:49;;;;;;;;;;;;;;;;;;4921344;29;8745;-86
2023/06/26 02:19:21;;;;;;;;;;;;;;;;;;4921505;29;8507;-86
2023/06/26 02:21:49;;;;;;;;;;;;;;;;;;4921134;29;8546;-85
2023/06/26 02:24:15;;;;;;;;;;;;;;;;;;4920767;29;8870;-85
2023/06/26 02:26:41;;;;;;;;;;;;;;;;;;4936952;29;8579;-86
2023/06/26 02:29:06;;;;;;;;;;;;;;;;;;4919888;29;8533;-85
2023/06/26 02:31:32;;;;;;;;;;;;;;;;;;4920991;29;8843;-87
2023/06/26 02:33:58;;;;;;;;;;;;;;;;;;4920817;29;9338;-87
2023/06/26 02:36:23;;;;;;;;;;;;;;;;;;4921030;29;8538;-86
2023/06/26 02:38:49;;;;;;;;;;;;;;;;;;4921005;29;8531;-86
2023/06/26 02:41:14;;;;;;;;;;;;;;;;;;4920761;29;8938;-87
2023/06/26 02:43:40;;;;;;;;;;;;;;;;;;4920617;29;8547;-86
2023/06/26 02:46:06;;;;;;;;;;;;;;;;;;4920734;29;8538;-86
2023/06/26 02:48:31;;;;;;;;;;;;;;;;;;4920650;29;8845;-85
2023/06/26 02:50:57;;;;;;;;;;;;;;;;;;4920611;29;8630;-87
2023/06/26 02:53:23;;;;;;;;;;;;;;;;;;4920780;29;7536;-86
2023/06/26 02:55:48;;;;;;;;;;;;;;;;;;4920512;29;7385;-86
2023/06/26 02:58:14;;;;;;;;;;;;;;;;;;4920493;29;8539;-87
2023/06/26 03:00:41;;;;;;;;;;;;;;;;;;4920292;29;8526;-85
2023/06/26 03:03:07;;;;;;;;;;;;;;;;;;4920151;29;8555;-86
2023/06/26 03:05:33;;;;;;;;;;;;;;;;;;4920137;29;8700;-87
2023/06/26 03:07:58;;;;;;;;;;;;;;;;;;4920285;29;8567;-85
2023/06/26 03:10:24;;;;;;;;;;;;;;;;;;4919893;29;8510;-86
2023/06/26 03:12:49;;;;;;;;;;;;;;;;;;4920384;29;9009;-86
2023/06/26 03:15:15;;;;;;;;;;;;;;;;;;4920121;29;8743;-87
2023/06/26 03:17:40;;;;;;;;;;;;;;;;;;4935817;29;8785;-87
2023/06/26 03:20:07;;;;;;;;;;;;;;;;;;4919959;29;7260;-87
2023/06/26 03:22:33;;;;;;;;;;;;;;;;;;4920004;29;8578;-87
2023/06/26 03:24:59;;;;;;;;;;;;;;;;;;4919673;29;8561;-86
2023/06/26 03:27:25;;;;;;;;;;;;;;;;;;4919908;29;8550;-87
2023/06/26 03:29:52;;;;;;;;;;;;;;;;;;4919585;29;7456;-86
2023/06/26 03:32:17;;;;;;;;;;;;;;;;;;4919794;29;8901;-87
2023/06/26 03:34:43;;;;;;;;;;;;;;;;;;4919695;29;8748;-86
2023/06/26 03:37:09;;;;;;;;;;;;;;;;;;4919751;29;8678;-87
2023/06/26 03:39:35;;;;;;;;;;;;;;;;;;4919670;29;8428;-86
2023/06/26 03:42:01;;;;;;;;;;;;;;;;;;4922151;28;8473;-88
2023/06/26 03:44:27;;;;;;;;;;;;;;;;;;4930215;28;8763;-89
2023/06/26 03:46:53;;;;;;;;;;;;;;;;;;4927760;29;7158;-90
2023/06/26 03:49:19;;;;;;;;;;;;;;;;;;4928766;29;9359;-90
2023/06/26 03:51:45;;;;;;;;;;;;;;;;;;4929185;28;8618;-87
2023/06/26 03:54:10;;;;;;;;;;;;;;;;;;4927820;28;8590;-88
2023/06/26 03:56:36;;;;;;;;;;;;;;;;;;4928671;28;9237;-87
2023/06/26 03:59:02;;;;;;;;;;;;;;;;;;4929137;28;8509;-87
2023/06/26 04:01:28;;;;;;;;;;;;;;;;;;4927752;28;9243;-87
2023/06/26 04:03:55;;;;;;;;;;;;;;;;;;4929164;28;7206;-87
2023/06/26 04:06:20;;;;;;;;;;;;;;;;;;4928530;28;9116;-87
2023/06/26 04:08:46;;;;;;;;;;;;;;;;;;4929896;28;8452;-86
2023/06/26 04:11:11;;;;;;;;;;;;;;;;;;4929618;28;8413;-87
2023/06/26 04:13:37;;;;;;;;;;;;;;;;;;4927895;28;8376;-86
2023/06/26 04:16:03;;;;;;;;;;;;;;;;;;4928074;28;8829;-87
2023/06/26 04:18:29;;;;;;;;;;;;;;;;;;4929150;28;8556;-87
2023/06/26 04:21:14;;;;;;;;;;;;;;;;;;4927650;29;8547;-86
2023/06/26 04:23:40;;;;;;;;;;;;;;;;;;4947066;28;8946;-87
2023/06/26 04:26:06;;;;;;;;;;;;;;;;;;4930036;29;8559;-86
2023/06/26 04:28:32;;;;;;;;;;;;;;;;;;4945231;28;8548;-87
2023/06/26 04:30:59;;;;;;;;;;;;;;;;;;4930709;28;7157;-86
2023/06/26 04:33:28;;;;;;;;;;;;;;;;;;4930236;29;9484;-85
2023/06/26 04:35:53;;;;;;;;;;;;;;;;;;4942986;28;8634;-87
2023/06/26 04:38:19;;;;;;;;;;;;;;;;;;4928170;29;8458;-87
2023/06/26 04:40:45;;;;;;;;;;;;;;;;;;4928340;29;8840;-86
2023/06/26 04:43:11;;;;;;;;;;;;;;;;;;4926654;29;7393;-86
2023/06/26 04:45:37;;;;;;;;;;;;;;;;;;4928222;29;8528;-87
2023/06/26 04:48:03;;;;;;;;;;;;;;;;;;4928614;29;9297;-87
2023/06/26 04:50:28;;;;;;;;;;;;;;;;;;4926515;29;8885;-87
2023/06/26 04:52:55;;;;;;;;;;;;;;;;;;4928163;28;8898;-87
2023/06/26 04:55:21;;;;;;;;;;;;;;;;;;4931604;28;8570;-81
2023/06/26 04:57:47;;;;;;;;;;;;;;;;;;4932632;28;9093;-82
2023/06/26 05:00:13;;;;;;;;;;;;;;;;;;4952113;28;8574;-91
2023/06/26 05:02:39;;;;;;;;;;;;;;;;;;4947520;28;8535;-89
2023/06/26 05:05:04;;;;;;;;;;;;;;;;;;4941711;28;8672;-87
2023/06/26 05:07:30;;;;;;;;;;;;;;;;;;4937340;28;8686;-88
2023/06/26 05:09:55;;;;;;;;;;;;;;;;;;4938397;28;8539;-89
2023/06/26 05:12:21;;;;;;;;;;;;;;;;;;4939998;28;7501;-88
2023/06/26 05:14:46;;;;;;;;;;;;;;;;;;4939160;28;8595;-90
2023/06/26 05:17:14;;;;;;;;;;;;;;;;;;4941013;28;7174;-89
2023/06/26 05:19:39;;;;;;;;;;;;;;;;;;4947412;28;8583;-89
2023/06/26 05:22:09;;;;;;;;;;;;;;;;;;4941323;28;8518;-90
2023/06/26 05:24:38;;;;;;;;;;;;;;;;;;4957276;28;7144;-88
2023/06/26 05:27:05;;;;;;;;;;;;;;;;;;4934681;29;8555;-91
2023/06/26 05:29:31;;;;;;;;;;;;;;;;;;4917523;29;8655;-89
2023/06/26 05:31:57;;;;;;;;;;;;;;;;;;4923045;29;8530;-88
2023/06/26 05:34:24;;;;;;;;;;;;;;;;;;4922047;29;8787;-88
2023/06/26 05:36:57;;;;;;;;;;;;;;;;;;4923102;29;7325;-88
2023/06/26 05:39:24;;;;;;;;;;;;;;;;;;4923033;29;8553;-89
2023/06/26 05:41:50;;;;;;;;;;;;;;;;;;4920959;29;8929;-87
2023/06/26 05:44:16;;;;;;;;;;;;;;;;;;4932967;29;7259;-88
2023/06/26 05:46:41;;;;;;;;;;;;;;;;;;4923039;29;6969;-86
2023/06/26 05:49:07;;;;;;;;;;;;;;;;;;4928338;29;7226;-84
2023/06/26 05:51:33;;;;;;;;;;;;;;;;;;4916390;29;7342;-84
2023/06/26 05:53:58;;;;;;;;;;;;;;;;;;4922321;29;9024;-84
2023/06/26 05:56:24;;;;;;;;;;;;;;;;;;4937993;29;7216;-84
2023/06/26 05:58:51;;;;;;;;;;;;;;;;;;4935439;29;8560;-85
2023/06/26 06:01:17;;;;;;;;;;;;;;;;;;4937878;29;7187;-85
2023/06/26 06:03:42;;;;;;;;;;;;;;;;;;4938003;29;8525;-85
2023/06/26 06:06:08;;;;;;;;;;;;;;;;;;4938060;29;8607;-84
2023/06/26 06:08:34;;;;;;;;;;;;;;;;;;4938067;29;8796;-85
2023/06/26 06:10:59;;;;;;;;;;;;;;;;;;4938233;29;8566;-85
2023/06/26 06:13:25;;;;;;;;;;;;;;;;;;4938046;29;8509;-85
2023/06/26 06:15:51;;;;;;;;;;;;;;;;;;4937882;29;8680;-84
2023/06/26 06:18:16;;;;;;;;;;;;;;;;;;4938180;29;8407;-85
2023/06/26 06:20:42;;;;;;;;;;;;;;;;;;4937907;29;9019;-85
2023/06/26 06:23:07;;;;;;;;;;;;;;;;;;4937848;29;8475;-86
2023/06/26 06:25:33;;;;;;;;;;;;;;;;;;4937723;29;8527;-85
2023/06/26 06:27:58;;;;;;;;;;;;;;;;;;4937709;29;8993;-84
2023/06/26 06:30:24;;;;;;;;;;;;;;;;;;4937647;29;8578;-84
2023/06/26 06:32:52;;;;;;;;;;;;;;;;;;4937504;29;8889;-85
2023/06/26 06:35:19;;;;;;;;;;;;;;;;;;4937195;29;8939;-85
2023/06/26 06:37:44;;;;;;;;;;;;;;;;;;4937551;29;7331;-83
2023/06/26 06:40:10;;;;;;;;;;;;;;;;;;4921385;29;8522;-84
2023/06/26 06:42:36;;;;;;;;;;;;;;;;;;4936468;29;7267;-83
2023/06/26 06:45:02;;;;;;;;;;;;;;;;;;4937276;29;8522;-84
2023/06/26 06:47:28;;;;;;;;;;;;;;;;;;4937300;29;8699;-84
2023/06/26 06:49:54;;;;;;;;;;;;;;;;;;4937460;29;8501;-85
2023/06/26 06:52:20;;;;;;;;;;;;;;;;;;4936614;29;8772;-84
2023/06/26 06:54:58;;;;;;;;;;;;;;;;;;4919655;29;8589;-84
2023/06/26 06:57:27;;;;;;;;;;;;;;;;;;4932613;29;8533;-85
2023/06/26 06:59:52;;;;;;;;;;;;;;;;;;4928502;29;9086;-86
2023/06/26 07:02:18;;;;;;;;;;;;;;;;;;4923618;29;8668;-84
2023/06/26 07:04:44;;;;;;;;;;;;;;;;;;4932587;29;8854;-85
2023/06/26 07:07:09;;;;;;;;;;;;;;;;;;4935642;29;8531;-85
2023/06/26 07:09:36;;;;;;;;;;;;;;;;;;4935870;29;8894;-84
2023/06/26 07:12:02;;;;;;;;;;;;;;;;;;4935914;29;8775;-85
2023/06/26 07:14:28;;;;;;;;;;;;;;;;;;4935787;29;7490;-84
2023/06/26 07:16:53;;;;;;;;;;;;;;;;;;4935149;29;8506;-86
2023/06/26 07:19:19;;;;;;;;;;;;;;;;;;4935811;29;8544;-85
2023/06/26 07:21:46;;;;;;;;;;;;;;;;;;4935605;29;8519;-87
2023/06/26 07:24:12;;;;;;;;;;;;;;;;;;4935765;29;8882;-85
2023/06/26 07:26:38;;;;;;;;;;;;;;;;;;4935639;29;8779;-85
2023/06/26 07:29:04;;;;;;;;;;;;;;;;;;4935523;29;8942;-84
2023/06/26 07:31:30;;;;;;;;;;;;;;;;;;4924648;29;8808;-84
2023/06/26 07:33:55;;;;;;;;;;;;;;;;;;4935707;29;8560;-85
2023/06/26 07:36:21;;;;;;;;;;;;;;;;;;4935234;29;8420;-84
2023/06/26 07:38:47;;;;;;;;;;;;;;;;;;4935238;29;8739;-83
2023/06/26 07:41:12;;;;;;;;;;;;;;;;;;4935233;29;7264;-82
2023/06/26 07:43:38;;;;;;;;;;;;;;;;;;4933658;29;6931;-82
2023/06/26 07:46:03;;;;;;;;;;;;;;;;;;4925373;29;8969;-82
2023/06/26 07:48:28;;;;;;;;;;;;;;;;;;4935438;29;8798;-82
2023/06/26 07:50:54;;;;;;;;;;;;;;;;;;4935115;29;8521;-83
2023/06/26 07:53:20;;;;;;;;;;;;;;;;;;4934917;29;8579;-82
2023/06/26 07:55:45;;;;;;;;;;;;;;;;;;4935095;29;8872;-82
2023/06/26 07:58:11;;;;;;;;;;;;;;;;;;4934958;29;9461;-84
2023/06/26 08:00:36;;;;;;;;;;;;;;;;;;4927992;29;8848;-83
2023/06/26 08:03:01;;;;;;;;;;;;;;;;;;4934780;29;8626;-83
2023/06/26 08:05:27;;;;;;;;;;;;;;;;;;4934342;29;7459;-83
2023/06/26 08:07:52;;;;;;;;;;;;;;;;;;4931951;29;7415;-83
2023/06/26 08:10:18;;;;;;;;;;;;;;;;;;4924001;29;8902;-84
2023/06/26 08:12:44;;;;;;;;;;;;;;;;;;4932008;29;8420;-85
2023/06/26 08:15:12;;;;;;;;;;;;;;;;;;4933983;29;8553;-83
2023/06/26 08:17:38;;;;;;;;;;;;;;;;;;4934126;29;7159;-83
2023/06/26 08:20:05;;;;;;;;;;;;;;;;;;4934955;29;7412;-83
2023/06/26 08:22:31;;;;;;;;;;;;;;;;;;4934721;29;8924;-83
2023/06/26 08:24:56;;;;;;;;;;;;;;;;;;4934774;29;7533;-83
2023/06/26 08:27:22;;;;;;;;;;;;;;;;;;4934112;29;8658;-82
2023/06/26 08:29:47;;;;;;;;;;;;;;;;;;4934579;29;8998;-83
2023/06/26 08:32:13;;;;;;;;;;;;;;;;;;4934426;29;8900;-83
2023/06/26 08:34:38;;;;;;;;;;;;;;;;;;4934493;29;8697;-82
2023/06/26 08:37:04;;;;;;;;;;;;;;;;;;4934638;29;8566;-83
2023/06/26 08:39:29;;;;;;;;;;;;;;;;;;4934754;29;8845;-83
2023/06/26 08:41:55;;;;;;;;;;;;;;;;;;4934379;29;8583;-83
2023/06/26 08:44:24;;;;;;;;;;;;;;;;;;4926953;29;8599;-83
2023/06/26 08:46:50;;;;;;;;;;;;;;;;;;4912480;29;8616;-83
2023/06/26 08:49:35;;;;;;;;;;;;;;;;;;4916908;29;8548;-84
2023/06/26 08:52:11;;;;;;;;;;;;;;;;;;4934057;29;8893;-83
2023/06/26 08:54:42;;;;;;;;;;;;;;;;;;4932974;29;8525;-84
2023/06/26 08:57:08;;;;;;;;;;;;;;;;;;4933337;29;6972;-84
2023/06/26 08:59:33;;;;;;;;;;;;;;;;;;4934906;29;8514;-84
2023/06/26 09:01:59;;;;;;;;;;;;;;;;;;4924884;29;9488;-83
2023/06/26 09:04:25;;;;;;;;;;;;;;;;;;4918712;29;8920;-84
2023/06/26 09:06:50;;;;;;;;;;;;;;;;;;4933640;29;8637;-85
2023/06/26 09:09:15;;;;;;;;;;;;;;;;;;4933128;29;8595;-84
2023/06/26 09:11:41;;;;;;;;;;;;;;;;;;4914765;29;7532;-83
2023/06/26 09:14:09;;;;;;;;;;;;;;;;;;4934631;29;7376;-84
2023/06/26 09:16:44;;;;;;;;;;;;;;;;;;4929311;29;6955;-83
2023/06/26 09:19:11;;;;;;;;;;;;;;;;;;4934988;29;7553;-84
2023/06/26 09:21:39;;;;;;;;;;;;;;;;;;4918326;29;8536;-85
2023/06/26 09:24:06;;;;;;;;;;;;;;;;;;4918877;29;6964;-84
2023/06/26 09:26:32;;;;;;;;;;;;;;;;;;4918600;29;7164;-83
2023/06/26 09:28:57;;;;;;;;;;;;;;;;;;4918905;29;7232;-84
2023/06/26 09:31:24;;;;;;;;;;;;;;;;;;4918390;29;8827;-84
2023/06/26 09:33:57;;;;;;;;;;;;;;;;;;4918596;29;8544;-84
2023/06/26 09:36:24;;;;;;;;;;;;;;;;;;4918254;29;8575;-78
2023/06/26 09:38:50;;;;;;;;;;;;;;;;;;4919402;29;8534;-79
2023/06/26 09:41:19;;;;;;;;;;;;;;;;;;4921857;29;7161;-79
2023/06/26 09:43:49;;;;;;;;;;;;;;;;;;4921749;29;9099;-79
2023/06/26 09:46:15;;;;;;;;;;;;;;;;;;4921666;29;8577;-80
2023/06/26 09:48:41;;;;;;;;;;;;;;;;;;4921675;29;8751;-80
2023/06/26 09:51:06;;;;;;;;;;;;;;;;;;4916001;29;9054;-79
2023/06/26 09:53:35;;;;;;;;;;;;;;;;;;4923419;29;8769;-80
2023/06/26 09:56:05;;;;;;;;;;;;;;;;;;4929170;29;8980;-79
2023/06/26 09:58:31;;;;;;;;;;;;;;;;;;4925471;29;9494;-79
2023/06/26 10:00:56;;;;;;;;;;;;;;;;;;4918739;29;8543;-80
2023/06/26 10:03:22;;;;;;;;;;;;;;;;;;4925781;29;8614;-79
2023/06/26 10:05:48;;;;;;;;;;;;;;;;;;4934094;28;8556;-80
2023/06/26 10:08:15;;;;;;;;;;;;;;;;;;4921224;29;8887;-80
2023/06/26 10:10:41;;;;;;;;;;;;;;;;;;4918443;29;9701;-80
2023/06/26 10:13:15;;;;;;;;;;;;;;;;;;4920839;29;8552;-80
2023/06/26 10:15:44;;;;;;;;;;;;;;;;;;4921248;29;9048;-81
2023/06/26 10:18:12;;;;;;;;;;;;;;;;;;4920845;29;8473;-79
2023/06/26 10:20:39;;;;;;;;;;;;;;;;;;4920910;29;7156;-80
2023/06/26 10:23:07;;;;;;;;;;;;;;;;;;4920652;29;8906;-81
2023/06/26 10:25:37;;;;;;;;;;;;;;;;;;4920296;29;8553;-80
2023/06/26 10:28:04;;;;;;;;;;;;;;;;;;4917122;29;8776;-80
2023/06/26 10:30:33;;;;;;;;;;;;;;;;;;4901543;29;8862;-81
2023/06/26 10:32:59;;;;;;;;;;;;;;;;;;4917977;29;8555;-80
2023/06/26 10:35:25;;;;;;;;;;;;;;;;;;4936162;29;8743;-80
2023/06/26 10:37:51;;;;;;;;;;;;;;;;;;4919573;29;7341;-80
2023/06/26 10:40:27;;;;;;;;;;;;;;;;;;4929010;29;8555;-82
2023/06/26 10:43:08;;;;;;;;;;;;;;;;;;4935750;29;8957;-79
2023/06/26 10:45:35;;;;;;;;;;;;;;;;;;4928440;29;7327;-80
2023/06/26 10:48:00;;;;;;;;;;;;;;;;;;4930213;29;8588;-81
2023/06/26 10:50:28;;;;;;;;;;;;;;;;;;4926240;29;8472;-80
2023/06/26 10:53:10;;;;;;;;;;;;;;;;;;4929512;29;8828;-81
2023/06/26 10:55:37;;;;;;;;;;;;;;;;;;4936176;29;6966;-80
2023/06/26 10:58:02;;;;;;;;;;;;;;;;;;4936205;29;7159;-80
2023/06/26 11:00:28;;;;;;;;;;;;;;;;;;4920292;29;7224;-80
2023/06/26 11:02:53;;;;;;;;;;;;;;;;;;4935833;29;8523;-80
2023/06/26 11:05:27;;;;;;;;;;;;;;;;;;4936492;29;8769;-80
2023/06/26 11:08:11;;;;;;;;;;;;;;;;;;4936238;29;8541;-80
2023/06/26 11:11:00;;;;;;;;;;;;;;;;;;4936265;29;9137;-80
2023/06/26 11:13:26;;;;;;;;;;;;;;;;;;4935759;29;8604;-81
2023/06/26 11:15:51;;;;;;;;;;;;;;;;;;4936046;29;8954;-80
2023/06/26 11:18:17;;;;;;;;;;;;;;;;;;4935830;29;8592;-80
2023/06/26 11:20:43;;;;;;;;;;;;;;;;;;4935587;29;8871;-80
2023/06/26 11:23:09;;;;;;;;;;;;;;;;;;4935573;29;8854;-81
2023/06/26 11:25:36;;;;;;;;;;;;;;;;;;4935732;29;7376;-81
2023/06/26 11:28:03;;;;;;;;;;;;;;;;;;4935779;29;8913;-81
2023/06/26 11:30:28;;;;;;;;;;;;;;;;;;4935602;29;8572;-81
2023/06/26 11:33:02;;;;;;;;;;;;;;;;;;4936031;29;8611;-81
2023/06/26 11:35:30;;;;;;;;;;;;;;;;;;4935527;29;8529;-80
2023/06/26 11:37:56;;;;;;;;;;;;;;;;;;4934419;29;8933;-79
2023/06/26 11:40:26;;;;;;;;;;;;;;;;;;4925462;29;8568;-80
2023/06/26 11:42:55;;;;;;;;;;;;;;;;;;4935316;29;8864;-80
2023/06/26 11:45:20;;;;;;;;;;;;;;;;;;4935603;29;7145;-80
2023/06/26 11:47:46;;;;;;;;;;;;;;;;;;4935543;29;8892;-80
2023/06/26 11:50:16;;;;;;;;;;;;;;;;;;4935223;29;8618;-79
2023/06/26 11:52:41;;;;;;;;;;;;;;;;;;4934059;29;8536;-81
2023/06/26 11:55:07;;;;;;;;;;;;;;;;;;4917457;29;8480;-81
2023/06/26 11:57:33;;;;;;;;;;;;;;;;;;4919490;29;8536;-81
2023/06/26 12:00:10;;;;;;;;;;;;;;;;;;4919360;29;8714;-80
2023/06/26 12:02:35;;;;;;;;;;;;;;;;;;4918799;29;8553;-80
2023/06/26 12:05:01;;;;;;;;;;;;;;;;;;4919243;29;8832;-81
2023/06/26 12:07:28;;;;;;;;;;;;;;;;;;4919512;29;9639;-80
2023/06/26 12:09:55;;;;;;;;;;;;;;;;;;4919180;29;6939;-80
2023/06/26 12:12:21;;;;;;;;;;;;;;;;;;4918911;29;8039;-80
2023/06/26 12:14:48;;;;;;;;;;;;;;;;;;4918828;29;8596;-81
2023/06/26 12:17:14;;;;;;;;;;;;;;;;;;4919076;29;8685;-81
2023/06/26 12:19:43;;;;;;;;;;;;;;;;;;4918888;29;8732;-80
2023/06/26 12:22:10;;;;;;;;;;;;;;;;;;4919103;29;9287;-80
2023/06/26 12:24:42;;;;;;;;;;;;;;;;;;4918905;29;9264;-81
2023/06/26 12:27:10;;;;;;;;;;;;;;;;;;4918923;29;8648;-80
2023/06/26 12:29:36;;;;;;;;;;;;;;;;;;4919216;29;8625;-81
2023/06/26 12:32:02;;;;;;;;;;;;;;;;;;4918771;29;8885;-81
2023/06/26 12:34:31;;;;;;;;;;;;;;;;;;4918818;29;7207;-80
2023/06/26 12:37:01;;;;;;;;;;;;;;;;;;4918734;29;8873;-81
2023/06/26 12:39:27;;;;;;;;;;;;;;;;;;4918170;29;9245;-82
2023/06/26 12:41:55;;;;;;;;;;;;;;;;;;4934093;29;9180;-81
2023/06/26 12:44:21;;;;;;;;;;;;;;;;;;4934113;29;8944;-81
2023/06/26 12:46:49;;;;;;;;;;;;;;;;;;4918877;29;7282;-81
2023/06/26 12:49:15;;;;;;;;;;;;;;;;;;4934408;29;8580;-81
2023/06/26 12:51:40;;;;;;;;;;;;;;;;;;4934306;29;8566;-81
2023/06/26 12:54:06;;;;;;;;;;;;;;;;;;4934847;29;8800;-81
2023/06/26 12:56:31;;;;;;;;;;;;;;;;;;4934488;29;8450;-81
2023/06/26 12:58:57;;;;;;;;;;;;;;;;;;4934409;29;8578;-81
2023/06/26 13:01:24;;;;;;;;;;;;;;;;;;4934516;29;8560;-82
2023/06/26 13:03:53;;;;;;;;;;;;;;;;;;4934194;29;8540;-81
2023/06/26 13:06:18;;;;;;;;;;;;;;;;;;4934623;29;8623;-81
2023/06/26 13:08:44;;;;;;;;;;;;;;;;;;4934396;29;8792;-81
2023/06/26 13:11:09;;;;;;;;;;;;;;;;;;4934147;29;7368;-82
2023/06/26 13:13:35;;;;;;;;;;;;;;;;;;4932644;29;7275;-82
2023/06/26 13:16:02;;;;;;;;;;;;;;;;;;4926609;29;8554;-82
2023/06/26 13:18:27;;;;;;;;;;;;;;;;;;4902741;29;8937;-82
2023/06/26 13:20:53;;;;;;;;;;;;;;;;;;4902741;29;8523;-82
2023/06/26 13:23:19;;;;;;;;;;;;;;;;;;4910299;29;8524;-82
2023/06/26 13:25:44;;;;;;;;;;;;;;;;;;4935203;29;7362;-80
2023/06/26 13:28:10;;;;;;;;;;;;;;;;;;4937043;29;8818;-80
2023/06/26 13:30:35;;;;;;;;;;;;;;;;;;4926058;29;8602;-80
2023/06/26 13:33:01;;;;;;;;;;;;;;;;;;4931799;29;8729;-81
2023/06/26 13:35:26;;;;;;;;;;;;;;;;;;4937683;29;8544;-81
2023/06/26 13:37:52;;;;;;;;;;;;;;;;;;4937637;29;8492;-80
2023/06/26 13:40:17;;;;;;;;;;;;;;;;;;4936987;29;8792;-90
2023/06/26 13:42:43;;;;;;;;;;;;;;;;;;4924690;29;7284;-82
2023/06/26 13:45:09;;;;;;;;;;;;;;;;;;4938063;29;9034;-82
2023/06/26 13:47:37;;;;;;;;;;;;;;;;;;4937800;29;8544;-83
2023/06/26 13:50:04;;;;;;;;;;;;;;;;;;4937729;29;9305;-83
2023/06/26 13:52:30;;;;;;;;;;;;;;;;;;4937389;29;9098;-83
2023/06/26 13:54:55;;;;;;;;;;;;;;;;;;4922109;29;8812;-83
2023/06/26 13:57:22;;;;;;;;;;;;;;;;;;4937509;29;8676;-83
2023/06/26 13:59:48;;;;;;;;;;;;;;;;;;4937194;29;9360;-82
2023/06/26 14:02:13;;;;;;;;;;;;;;;;;;4937105;29;8809;-83
2023/06/26 14:04:39;;;;;;;;;;;;;;;;;;4937252;29;7131;-83
2023/06/26 14:07:07;;;;;;;;;;;;;;;;;;4937348;29;8446;-83
2023/06/26 14:09:33;;;;;;;;;;;;;;;;;;4937085;29;8922;-82
2023/06/26 14:11:58;;;;;;;;;;;;;;;;;;4937023;29;8768;-80
2023/06/26 14:14:24;;;;;;;;;;;;;;;;;;4936571;29;7217;-80
2023/06/26 14:16:50;;;;;;;;;;;;;;;;;;4936515;29;8519;-81
2023/06/26 14:19:17;;;;;;;;;;;;;;;;;;4925397;29;8782;-81
2023/06/26 14:21:43;;;;;;;;;;;;;;;;;;4933307;29;7471;-81
2023/06/26 14:24:08;;;;;;;;;;;;;;;;;;4936148;29;8578;-81
2023/06/26 14:26:34;;;;;;;;;;;;;;;;;;4935212;29;8486;-81
2023/06/26 14:29:00;;;;;;;;;;;;;;;;;;4925439;29;7727;-81
2023/06/26 14:31:27;;;;;;;;;;;;;;;;;;4935140;29;8655;-81
2023/06/26 14:33:52;;;;;;;;;;;;;;;;;;4920581;29;8562;-81
2023/06/26 14:36:18;;;;;;;;;;;;;;;;;;4936272;29;8683;-81
2023/06/26 14:38:44;;;;;;;;;;;;;;;;;;4936602;29;8945;-80
2023/06/26 14:41:11;;;;;;;;;;;;;;;;;;4929941;29;8435;-81
2023/06/26 14:43:36;;;;;;;;;;;;;;;;;;4936603;29;8595;-81
2023/06/26 14:46:02;;;;;;;;;;;;;;;;;;4936508;29;8610;-81
2023/06/26 14:48:27;;;;;;;;;;;;;;;;;;4936622;29;8533;-82
2023/06/26 14:50:53;;;;;;;;;;;;;;;;;;4936401;29;8681;-81
2023/06/26 14:53:18;;;;;;;;;;;;;;;;;;4936334;29;8560;-82
2023/06/26 14:55:44;;;;;;;;;;;;;;;;;;4936370;29;8509;-81
2023/06/26 14:58:09;;;;;;;;;;;;;;;;;;4936240;29;8710;-81
2023/06/26 15:00:35;;;;;;;;;;;;;;;;;;4936276;29;7132;-82
2023/06/26 15:03:01;;;;;;;;;;;;;;;;;;4922720;29;7130;-82
2023/06/26 15:05:26;;;;;;;;;;;;;;;;;;4933045;29;8520;-81
2023/06/26 15:07:52;;;;;;;;;;;;;;;;;;4933041;29;7266;-82
2023/06/26 15:10:18;;;;;;;;;;;;;;;;;;4932830;29;8866;-82
2023/06/26 15:12:43;;;;;;;;;;;;;;;;;;4932905;29;9079;-81
2023/06/26 15:15:10;;;;;;;;;;;;;;;;;;4932622;29;7515;-81
2023/06/26 15:17:35;;;;;;;;;;;;;;;;;;4928676;29;8511;-81
2023/06/26 15:20:01;;;;;;;;;;;;;;;;;;4931177;29;8601;-82
2023/06/26 15:22:27;;;;;;;;;;;;;;;;;;4921692;29;7227;-82
2023/06/26 15:24:53;;;;;;;;;;;;;;;;;;4931774;29;8849;-82
2023/06/26 15:27:19;;;;;;;;;;;;;;;;;;4931989;29;7162;-83
2023/06/26 15:29:45;;;;;;;;;;;;;;;;;;4932175;29;9097;-83
2023/06/26 15:32:10;;;;;;;;;;;;;;;;;;4931995;29;8863;-83
2023/06/26 15:34:36;;;;;;;;;;;;;;;;;;4932050;29;8579;-83
2023/06/26 15:37:02;;;;;;;;;;;;;;;;;;4931595;29;8561;-82
2023/06/26 15:39:27;;;;;;;;;;;;;;;;;;4932107;29;7236;-84
2023/06/26 15:41:53;;;;;;;;;;;;;;;;;;4932382;29;8442;-83
2023/06/26 15:44:19;;;;;;;;;;;;;;;;;;4932095;29;7141;-84
2023/06/26 15:46:45;;;;;;;;;;;;;;;;;;4932152;29;8561;-84
2023/06/26 15:49:10;;;;;;;;;;;;;;;;;;4924229;29;8535;-83
2023/06/26 15:51:37;;;;;;;;;;;;;;;;;;4931227;29;8527;-87
2023/06/26 15:54:06;;;;;;;;;;;;;;;;;;4931459;29;8652;-87
2023/06/26 15:56:31;;;;;;;;;;;;;;;;;;4931582;29;8370;-87
2023/06/26 15:58:57;;;;;;;;;;;;;;;;;;4920393;29;8477;-85
2023/06/26 16:01:24;;;;;;;;;;;;;;;;;;4931514;29;7279;-83
2023/06/26 16:03:50;;;;;;;;;;;;;;;;;;4931723;29;8981;-83
2023/06/26 16:06:15;;;;;;;;;;;;;;;;;;4923946;29;8530;-84
2023/06/26 16:08:41;;;;;;;;;;;;;;;;;;4931718;29;8462;-84
2023/06/26 16:11:07;;;;;;;;;;;;;;;;;;4931765;29;7325;-85
2023/06/26 16:13:33;;;;;;;;;;;;;;;;;;4931858;29;8881;-84
2023/06/26 16:16:00;;;;;;;;;;;;;;;;;;4931774;29;8649;-83
2023/06/26 16:18:26;;;;;;;;;;;;;;;;;;4930994;29;7296;-84
2023/06/26 16:20:52;;;;;;;;;;;;;;;;;;4931478;29;8656;-85
2023/06/26 16:23:18;;;;;;;;;;;;;;;;;;4930901;29;8891;-86
2023/06/26 16:25:44;;;;;;;;;;;;;;;;;;4931240;29;8516;-86
2023/06/26 16:28:09;;;;;;;;;;;;;;;;;;4931608;29;8608;-85
2023/06/26 16:30:35;;;;;;;;;;;;;;;;;;4931729;29;8823;-88
2023/06/26 16:33:00;;;;;;;;;;;;;;;;;;4931563;29;9034;-87
2023/06/26 16:35:30;;;;;;;;;;;;;;;;;;4931534;29;8455;-83
2023/06/26 16:37:56;;;;;;;;;;;;;;;;;;4931518;29;8962;-83
2023/06/26 16:40:22;;;;;;;;;;;;;;;;;;4931294;29;8832;-83
2023/06/26 16:42:48;;;;;;;;;;;;;;;;;;4931354;29;8729;-83
2023/06/26 16:45:14;;;;;;;;;;;;;;;;;;4931602;29;8637;-84
2023/06/26 16:47:40;;;;;;;;;;;;;;;;;;4930058;29;8561;-83
2023/06/26 16:50:06;;;;;;;;;;;;;;;;;;4918292;29;8561;-87
2023/06/26 16:52:31;;;;;;;;;;;;;;;;;;4935373;29;7185;-85
2023/06/26 16:54:57;;;;;;;;;;;;;;;;;;4935106;29;8551;-83
2023/06/26 16:57:22;;;;;;;;;;;;;;;;;;4935363;29;8670;-86
2023/06/26 16:59:47;;;;;;;;;;;;;;;;;;4935136;29;7635;-86